PWSweather.com
Personal Weather Stations
Station Observations
SUBOTICARS
SuboticaYU

SuboticaYU

Lat: 46.1296717, Lon: 19.641551

Elevation: 361

Station Type: Nexus

http://sumeteo.info

High Low Average
Temperature 33.6°F0.9°C 20.3°F-6.5°C 27.8°F-2.3°C
Dew Point 22.1°F-5.5°C 11.7°F-11.3°C 19.3°F-7.1°C
Winds 10.4 mph 16.7 kmh 1.2 mph 1.9 kmh 5.0 mph NW8.0 kmh NW
Wind Gusts 13.8 mph22.2 kmh 1.2 mph1.9 kmh 6.0 mph9.7 kmh
Humidity 87% 57% 70%
Pressure 29.78 in1008.5 mb 29.60 in1002.4 mb -
Precipitation 0.00 in0.0 mm - -
Hour Temp Dew Point Humidity Winds Wind Gusts Pressure Precip Precip Rate Daily Precip Total
12:00 AM 25.7°F-3.5°C 20.4°F-6.4°C 80% 4.6 mph N7.4 kmh N 5.8 mph9.3 kmh 29.60 in1002.4 mb - 0.00 in0.0 mm 0.00 in0.0 mm
12:10 AM 26.1°F-3.3°C 20.4°F-6.4°C 79% 6.9 mph NE11.1 kmh NE 6.9 mph11.1 kmh 29.60 in1002.4 mb - 0.00 in0.0 mm 0.00 in0.0 mm
12:15 AM 26.2°F-3.2°C 20.3°F-6.5°C 78% 6.9 mph N11.1 kmh N 8.1 mph13.0 kmh 29.60 in1002.4 mb - 0.00 in0.0 mm 0.00 in0.0 mm
12:20 AM 26.4°F-3.1°C 19.9°F-6.7°C 76% 6.9 mph NNE11.1 kmh NNE 6.9 mph11.1 kmh 29.60 in1002.4 mb - 0.00 in0.0 mm 0.00 in0.0 mm
12:25 AM 26.5°F-3.1°C 20.0°F-6.7°C 76% 5.8 mph N9.3 kmh N 9.2 mph14.8 kmh 29.60 in1002.4 mb - 0.00 in0.0 mm 0.00 in0.0 mm
12:30 AM 26.7°F-2.9°C 19.8°F-6.8°C 75% 6.9 mph NNE11.1 kmh NNE 8.1 mph13.0 kmh 29.60 in1002.4 mb - 0.00 in0.0 mm 0.00 in0.0 mm
12:35 AM 26.8°F-2.9°C 19.9°F-6.7°C 75% 5.8 mph NNW9.3 kmh NNW 8.1 mph13.0 kmh 29.60 in1002.4 mb - 0.00 in0.0 mm 0.00 in0.0 mm
12:40 AM 26.8°F-2.9°C 19.6°F-6.9°C 74% 6.9 mph NW11.1 kmh NW 9.2 mph14.8 kmh 29.60 in1002.4 mb - 0.00 in0.0 mm 0.00 in0.0 mm
12:45 AM 26.6°F-3.0°C 19.4°F-7.0°C 74% 5.8 mph N9.3 kmh N 10.4 mph16.7 kmh 29.61 in1002.7 mb - 0.00 in0.0 mm 0.00 in0.0 mm
12:50 AM 26.8°F-2.9°C 19.6°F-6.9°C 74% 5.8 mph NNW9.3 kmh NNW 6.9 mph11.1 kmh 29.61 in1002.7 mb - 0.00 in0.0 mm 0.00 in0.0 mm
12:55 AM 26.5°F-3.1°C 19.4°F-7.0°C 74% 5.8 mph NW9.3 kmh NW 5.8 mph9.3 kmh 29.61 in1002.7 mb - 0.00 in0.0 mm 0.00 in0.0 mm
01:00 AM 25.9°F-3.4°C 19.0°F-7.2°C 75% 5.8 mph WNW9.3 kmh WNW 8.1 mph13.0 kmh 29.61 in1002.7 mb - 0.00 in0.0 mm 0.00 in0.0 mm
01:10 AM 25.7°F-3.5°C 20.1°F-6.6°C 79% 5.8 mph NNW9.3 kmh NNW 8.1 mph13.0 kmh 29.61 in1002.7 mb - 0.00 in0.0 mm 0.00 in0.0 mm
01:15 AM 25.2°F-3.8°C 19.6°F-6.9°C 79% 3.5 mph NNW5.6 kmh NNW 5.8 mph9.3 kmh 29.61 in1002.7 mb - 0.00 in0.0 mm 0.00 in0.0 mm
01:20 AM 25.2°F-3.8°C 19.6°F-6.9°C 79% 4.6 mph NW7.4 kmh NW 3.5 mph5.6 kmh 29.61 in1002.7 mb - 0.00 in0.0 mm 0.00 in0.0 mm
01:25 AM 24.8°F-4.0°C 19.5°F-6.9°C 80% 4.6 mph NW7.4 kmh NW 4.6 mph7.4 kmh 29.61 in1002.7 mb - 0.00 in0.0 mm 0.00 in0.0 mm
01:30 AM 24.6°F-4.1°C 19.6°F-6.9°C 81% 3.5 mph NW5.6 kmh NW 4.6 mph7.4 kmh 29.62 in1003.0 mb - 0.00 in0.0 mm 0.00 in0.0 mm
01:35 AM 24.4°F-4.2°C 19.7°F-6.8°C 82% 5.8 mph NNW9.3 kmh NNW 8.1 mph13.0 kmh 29.62 in1003.0 mb - 0.00 in0.0 mm 0.00 in0.0 mm
01:40 AM 24.3°F-4.3°C 19.8°F-6.8°C 83% 4.6 mph NW7.4 kmh NW 3.5 mph5.6 kmh 29.62 in1003.0 mb - 0.00 in0.0 mm 0.00 in0.0 mm
01:45 AM 24.1°F-4.4°C 19.7°F-6.8°C 83% 4.6 mph NNW7.4 kmh NNW 5.8 mph9.3 kmh 29.63 in1003.4 mb - 0.00 in0.0 mm 0.00 in0.0 mm
01:50 AM 23.9°F-4.5°C 19.8°F-6.8°C 84% 4.6 mph NW7.4 kmh NW 4.6 mph7.4 kmh 29.63 in1003.4 mb - 0.00 in0.0 mm 0.00 in0.0 mm
01:55 AM 23.7°F-4.6°C 19.6°F-6.9°C 84% 3.5 mph NW5.6 kmh NW 3.5 mph5.6 kmh 29.63 in1003.4 mb - 0.00 in0.0 mm 0.00 in0.0 mm
02:00 AM 23.5°F-4.7°C 19.4°F-7.0°C 84% 3.5 mph NNW5.6 kmh NNW 3.5 mph5.6 kmh 29.63 in1003.4 mb - 0.00 in0.0 mm 0.00 in0.0 mm
02:10 AM 23.4°F-4.8°C 19.2°F-7.1°C 84% 3.5 mph WNW5.6 kmh WNW 3.5 mph5.6 kmh 29.63 in1003.4 mb - 0.00 in0.0 mm 0.00 in0.0 mm
02:15 AM 23.2°F-4.9°C 19.1°F-7.2°C 84% 3.5 mph NW5.6 kmh NW 4.6 mph7.4 kmh 29.63 in1003.4 mb - 0.00 in0.0 mm 0.00 in0.0 mm
02:20 AM 23.4°F-4.8°C 19.2°F-7.1°C 84% 3.5 mph WNW5.6 kmh WNW 3.5 mph5.6 kmh 29.63 in1003.4 mb - 0.00 in0.0 mm 0.00 in0.0 mm
02:25 AM 23.4°F-4.8°C 19.8°F-6.8°C 86% 4.6 mph NNW7.4 kmh NNW 6.9 mph11.1 kmh 29.63 in1003.4 mb - 0.00 in0.0 mm 0.00 in0.0 mm
02:30 AM 23.4°F-4.8°C 19.8°F-6.8°C 86% 3.5 mph WNW5.6 kmh WNW 3.5 mph5.6 kmh 29.64 in1003.7 mb - 0.00 in0.0 mm 0.00 in0.0 mm
02:35 AM 23.2°F-4.9°C 19.6°F-6.9°C 86% 3.5 mph NW5.6 kmh NW 4.6 mph7.4 kmh 29.64 in1003.7 mb - 0.00 in0.0 mm 0.00 in0.0 mm
02:40 AM 23.2°F-4.9°C 19.6°F-6.9°C 86% 3.5 mph NW5.6 kmh NW 4.6 mph7.4 kmh 29.64 in1003.7 mb - 0.00 in0.0 mm 0.00 in0.0 mm
02:45 AM 23.2°F-4.9°C 19.6°F-6.9°C 86% 3.5 mph NW5.6 kmh NW 5.8 mph9.3 kmh 29.64 in1003.7 mb - 0.00 in0.0 mm 0.00 in0.0 mm
02:50 AM 23.0°F-5.0°C 19.4°F-7.0°C 86% 3.5 mph NW5.6 kmh NW 4.6 mph7.4 kmh 29.64 in1003.7 mb - 0.00 in0.0 mm 0.00 in0.0 mm
02:55 AM 23.2°F-4.9°C 19.6°F-6.9°C 86% 3.5 mph NNW5.6 kmh NNW 4.6 mph7.4 kmh 29.64 in1003.7 mb - 0.00 in0.0 mm 0.00 in0.0 mm
03:00 AM 23.0°F-5.0°C 19.4°F-7.0°C 86% 3.5 mph WNW5.6 kmh WNW 3.5 mph5.6 kmh 29.64 in1003.7 mb - 0.00 in0.0 mm 0.00 in0.0 mm
03:10 AM 23.2°F-4.9°C 19.9°F-6.7°C 87% 4.6 mph NNW7.4 kmh NNW 5.8 mph9.3 kmh 29.64 in1003.7 mb - 0.00 in0.0 mm 0.00 in0.0 mm
03:15 AM 23.2°F-4.9°C 19.9°F-6.7°C 87% 3.5 mph NNW5.6 kmh NNW 3.5 mph5.6 kmh 29.64 in1003.7 mb - 0.00 in0.0 mm 0.00 in0.0 mm
03:20 AM 23.2°F-4.9°C 19.9°F-6.7°C 87% 3.5 mph NNW5.6 kmh NNW 4.6 mph7.4 kmh 29.64 in1003.7 mb - 0.00 in0.0 mm 0.00 in0.0 mm
03:25 AM 23.3°F-4.8°C 20.0°F-6.7°C 87% 3.5 mph NW5.6 kmh NW 3.5 mph5.6 kmh 29.64 in1003.7 mb - 0.00 in0.0 mm 0.00 in0.0 mm
03:30 AM 23.2°F-4.9°C 19.9°F-6.7°C 87% 3.5 mph NNW5.6 kmh NNW 4.6 mph7.4 kmh 29.64 in1003.7 mb - 0.00 in0.0 mm 0.00 in0.0 mm
03:35 AM 23.5°F-4.7°C 20.2°F-6.6°C 87% 3.5 mph NNW5.6 kmh NNW 3.5 mph5.6 kmh 29.64 in1003.7 mb - 0.00 in0.0 mm 0.00 in0.0 mm
03:40 AM 23.4°F-4.8°C 20.1°F-6.6°C 87% 4.6 mph NW7.4 kmh NW 3.5 mph5.6 kmh 29.64 in1003.7 mb - 0.00 in0.0 mm 0.00 in0.0 mm
03:45 AM 23.5°F-4.7°C 20.2°F-6.6°C 87% 3.5 mph NNW5.6 kmh NNW 4.6 mph7.4 kmh 29.65 in1004.1 mb - 0.00 in0.0 mm 0.00 in0.0 mm
03:50 AM 23.5°F-4.7°C 20.2°F-6.6°C 87% 3.5 mph WNW5.6 kmh WNW 3.5 mph5.6 kmh 29.65 in1004.1 mb - 0.00 in0.0 mm 0.00 in0.0 mm
03:55 AM 23.5°F-4.7°C 20.2°F-6.6°C 87% 3.5 mph WNW5.6 kmh WNW 3.5 mph5.6 kmh 29.65 in1004.1 mb - 0.00 in0.0 mm 0.00 in0.0 mm
04:00 AM 23.7°F-4.6°C 20.4°F-6.4°C 87% 3.5 mph NNW5.6 kmh NNW 3.5 mph5.6 kmh 29.64 in1003.7 mb - 0.00 in0.0 mm 0.00 in0.0 mm
04:10 AM 23.9°F-4.5°C 20.6°F-6.3°C 87% 3.5 mph NW5.6 kmh NW 5.8 mph9.3 kmh 29.64 in1003.7 mb - 0.00 in0.0 mm 0.00 in0.0 mm
04:15 AM 24.1°F-4.4°C 20.8°F-6.2°C 87% 3.5 mph NW5.6 kmh NW 4.6 mph7.4 kmh 29.64 in1003.7 mb - 0.00 in0.0 mm 0.00 in0.0 mm
04:20 AM 24.1°F-4.4°C 20.8°F-6.2°C 87% 3.5 mph WNW5.6 kmh WNW 4.6 mph7.4 kmh 29.64 in1003.7 mb - 0.00 in0.0 mm 0.00 in0.0 mm
04:25 AM 24.1°F-4.4°C 20.8°F-6.2°C 87% 3.5 mph NW5.6 kmh NW 3.5 mph5.6 kmh 29.64 in1003.7 mb - 0.00 in0.0 mm 0.00 in0.0 mm
04:30 AM 24.4°F-4.2°C 21.1°F-6.1°C 87% 3.5 mph NNW5.6 kmh NNW 3.5 mph5.6 kmh 29.64 in1003.7 mb - 0.00 in0.0 mm 0.00 in0.0 mm
04:35 AM 24.6°F-4.1°C 21.3°F-5.9°C 87% 3.5 mph NW5.6 kmh NW 3.5 mph5.6 kmh 29.64 in1003.7 mb - 0.00 in0.0 mm 0.00 in0.0 mm
04:40 AM 24.8°F-4.0°C 21.5°F-5.8°C 87% 4.6 mph WNW7.4 kmh WNW 3.5 mph5.6 kmh 29.64 in1003.7 mb - 0.00 in0.0 mm 0.00 in0.0 mm
04:45 AM 24.8°F-4.0°C 21.5°F-5.8°C 87% 2.3 mph NW3.7 kmh NW 3.5 mph5.6 kmh 29.65 in1004.1 mb - 0.00 in0.0 mm 0.00 in0.0 mm
04:50 AM 25.2°F-3.8°C 21.8°F-5.7°C 87% 3.5 mph NW5.6 kmh NW 3.5 mph5.6 kmh 29.65 in1004.1 mb - 0.00 in0.0 mm 0.00 in0.0 mm
04:55 AM 25.2°F-3.8°C 21.9°F-5.6°C 87% 4.6 mph NW7.4 kmh NW 5.8 mph9.3 kmh 29.65 in1004.1 mb - 0.00 in0.0 mm 0.00 in0.0 mm
05:00 AM 25.3°F-3.7°C 21.7°F-5.7°C 86% 3.5 mph NNW5.6 kmh NNW 4.6 mph7.4 kmh 29.65 in1004.1 mb - 0.00 in0.0 mm 0.00 in0.0 mm
05:10 AM 25.7°F-3.5°C 22.1°F-5.5°C 86% 5.8 mph NNW9.3 kmh NNW 8.1 mph13.0 kmh 29.65 in1004.1 mb - 0.00 in0.0 mm 0.00 in0.0 mm
05:15 AM 25.9°F-3.4°C 21.7°F-5.7°C 84% 5.8 mph NNW9.3 kmh NNW 6.9 mph11.1 kmh 29.65 in1004.1 mb - 0.00 in0.0 mm 0.00 in0.0 mm
05:20 AM 26.0°F-3.3°C 21.8°F-5.7°C 84% 5.8 mph N9.3 kmh N 8.1 mph13.0 kmh 29.65 in1004.1 mb - 0.00 in0.0 mm 0.00 in0.0 mm
05:25 AM 26.2°F-3.2°C 22.1°F-5.5°C 84% 4.6 mph NW7.4 kmh NW 6.9 mph11.1 kmh 29.65 in1004.1 mb - 0.00 in0.0 mm 0.00 in0.0 mm
05:30 AM 26.1°F-3.3°C 21.6°F-5.8°C 83% 4.6 mph NW7.4 kmh NW 5.8 mph9.3 kmh 29.65 in1004.1 mb - 0.00 in0.0 mm 0.00 in0.0 mm
05:35 AM 26.2°F-3.2°C 21.8°F-5.7°C 83% 4.6 mph NW7.4 kmh NW 5.8 mph9.3 kmh 29.65 in1004.1 mb - 0.00 in0.0 mm 0.00 in0.0 mm
05:40 AM 26.4°F-3.1°C 21.9°F-5.6°C 83% 5.8 mph NNW9.3 kmh NNW 4.6 mph7.4 kmh 29.65 in1004.1 mb - 0.00 in0.0 mm 0.00 in0.0 mm
05:45 AM 26.4°F-3.1°C 22.0°F-5.6°C 83% 4.6 mph NW7.4 kmh NW 5.8 mph9.3 kmh 29.67 in1004.7 mb - 0.00 in0.0 mm 0.00 in0.0 mm
05:50 AM 26.5°F-3.1°C 22.0°F-5.6°C 83% 4.6 mph WNW7.4 kmh WNW 8.1 mph13.0 kmh 29.67 in1004.7 mb - 0.00 in0.0 mm 0.00 in0.0 mm
05:55 AM 26.6°F-3.0°C 21.8°F-5.7°C 82% 4.6 mph WNW7.4 kmh WNW 5.8 mph9.3 kmh 29.67 in1004.7 mb - 0.00 in0.0 mm 0.00 in0.0 mm
06:00 AM 26.8°F-2.9°C 22.0°F-5.6°C 82% 4.6 mph NW7.4 kmh NW 5.8 mph9.3 kmh 29.67 in1004.7 mb - 0.00 in0.0 mm 0.00 in0.0 mm
06:10 AM 27.0°F-2.8°C 21.9°F-5.6°C 81% 4.6 mph NNW7.4 kmh NNW 5.8 mph9.3 kmh 29.67 in1004.7 mb - 0.00 in0.0 mm 0.00 in0.0 mm
06:15 AM 27.0°F-2.8°C 21.9°F-5.6°C 81% 4.6 mph NNW7.4 kmh NNW 6.9 mph11.1 kmh 29.67 in1004.7 mb - 0.00 in0.0 mm 0.00 in0.0 mm
06:20 AM 27.0°F-2.8°C 21.9°F-5.6°C 81% 4.6 mph NNW7.4 kmh NNW 5.8 mph9.3 kmh 29.67 in1004.7 mb - 0.00 in0.0 mm 0.00 in0.0 mm
06:25 AM 27.0°F-2.8°C 21.9°F-5.6°C 81% 4.6 mph WNW7.4 kmh WNW 6.9 mph11.1 kmh 29.67 in1004.7 mb - 0.00 in0.0 mm 0.00 in0.0 mm
06:30 AM 27.1°F-2.7°C 22.1°F-5.5°C 81% 4.6 mph NNW7.4 kmh NNW 5.8 mph9.3 kmh 29.68 in1005.1 mb - 0.00 in0.0 mm 0.00 in0.0 mm
06:35 AM 27.1°F-2.7°C 22.1°F-5.5°C 81% 4.6 mph NW7.4 kmh NW 4.6 mph7.4 kmh 29.68 in1005.1 mb - 0.00 in0.0 mm 0.00 in0.0 mm
06:40 AM 27.3°F-2.6°C 22.0°F-5.6°C 80% 5.8 mph NNW9.3 kmh NNW 9.2 mph14.8 kmh 29.68 in1005.1 mb - 0.00 in0.0 mm 0.00 in0.0 mm
06:45 AM 27.3°F-2.6°C 22.0°F-5.6°C 80% 4.6 mph NW7.4 kmh NW 4.6 mph7.4 kmh 29.68 in1005.1 mb - 0.00 in0.0 mm 0.00 in0.0 mm
06:50 AM 27.3°F-2.6°C 22.0°F-5.6°C 80% 4.6 mph NW7.4 kmh NW 6.9 mph11.1 kmh 29.68 in1005.1 mb - 0.00 in0.0 mm 0.00 in0.0 mm
06:55 AM 27.3°F-2.6°C 22.0°F-5.6°C 80% 4.6 mph NW7.4 kmh NW 5.8 mph9.3 kmh 29.68 in1005.1 mb - 0.00 in0.0 mm 0.00 in0.0 mm
07:00 AM 27.3°F-2.6°C 22.0°F-5.6°C 80% 5.8 mph NW9.3 kmh NW 8.1 mph13.0 kmh 29.68 in1005.1 mb - 0.00 in0.0 mm 0.00 in0.0 mm
07:10 AM 27.3°F-2.6°C 22.0°F-5.6°C 80% 3.5 mph NW5.6 kmh NW 3.5 mph5.6 kmh 29.68 in1005.1 mb - 0.00 in0.0 mm 0.00 in0.0 mm
07:15 AM 27.1°F-2.7°C 21.8°F-5.7°C 80% 4.6 mph NW7.4 kmh NW 4.6 mph7.4 kmh 29.69 in1005.4 mb - 0.00 in0.0 mm 0.00 in0.0 mm
07:20 AM 27.3°F-2.6°C 22.0°F-5.6°C 80% 3.5 mph NW5.6 kmh NW 5.8 mph9.3 kmh 29.69 in1005.4 mb - 0.00 in0.0 mm 0.00 in0.0 mm
07:25 AM 27.3°F-2.6°C 22.0°F-5.6°C 80% 4.6 mph NW7.4 kmh NW 5.8 mph9.3 kmh 29.69 in1005.4 mb - 0.00 in0.0 mm 0.00 in0.0 mm
07:30 AM 27.3°F-2.6°C 22.0°F-5.6°C 80% 4.6 mph NNW7.4 kmh NNW 5.8 mph9.3 kmh 29.70 in1005.8 mb - 0.00 in0.0 mm 0.00 in0.0 mm
07:35 AM 27.3°F-2.6°C 21.7°F-5.7°C 79% 3.5 mph NNW5.6 kmh NNW 4.6 mph7.4 kmh 29.70 in1005.8 mb - 0.00 in0.0 mm 0.00 in0.0 mm
07:40 AM 27.3°F-2.6°C 21.7°F-5.7°C 79% 3.5 mph NW5.6 kmh NW 4.6 mph7.4 kmh 29.70 in1005.8 mb - 0.00 in0.0 mm 0.00 in0.0 mm
07:45 AM 27.3°F-2.6°C 21.7°F-5.7°C 79% 4.6 mph NNW7.4 kmh NNW 4.6 mph7.4 kmh 29.70 in1005.8 mb - 0.00 in0.0 mm 0.00 in0.0 mm
07:50 AM 27.3°F-2.6°C 21.7°F-5.7°C 79% 4.6 mph NNW7.4 kmh NNW 4.6 mph7.4 kmh 29.70 in1005.8 mb - 0.00 in0.0 mm 0.00 in0.0 mm
07:55 AM 27.3°F-2.6°C 21.7°F-5.7°C 79% 5.8 mph NNW9.3 kmh NNW 6.9 mph11.1 kmh 29.70 in1005.8 mb - 0.00 in0.0 mm 0.00 in0.0 mm
08:00 AM 27.3°F-2.6°C 21.7°F-5.7°C 79% 8.1 mph NNW13.0 kmh NNW 10.4 mph16.7 kmh 29.69 in1005.4 mb - 0.00 in0.0 mm 0.00 in0.0 mm
08:10 AM 27.7°F-2.4°C 21.7°F-5.7°C 78% 5.8 mph NNW9.3 kmh NNW 6.9 mph11.1 kmh 29.69 in1005.4 mb - 0.00 in0.0 mm 0.00 in0.0 mm
08:15 AM 27.7°F-2.4°C 21.1°F-6.1°C 76% 5.8 mph NNW9.3 kmh NNW 8.1 mph13.0 kmh 29.70 in1005.8 mb - 0.00 in0.0 mm 0.00 in0.0 mm
08:20 AM 27.7°F-2.4°C 21.1°F-6.1°C 76% 4.6 mph NNW7.4 kmh NNW 9.2 mph14.8 kmh 29.70 in1005.8 mb - 0.00 in0.0 mm 0.00 in0.0 mm
08:25 AM 27.9°F-2.3°C 21.0°F-6.1°C 75% 4.6 mph NW7.4 kmh NW 5.8 mph9.3 kmh 29.70 in1005.8 mb - 0.00 in0.0 mm 0.00 in0.0 mm
08:30 AM 27.9°F-2.3°C 20.6°F-6.3°C 74% 4.6 mph N7.4 kmh N 6.9 mph11.1 kmh 29.71 in1006.1 mb - 0.00 in0.0 mm 0.00 in0.0 mm
08:35 AM 27.9°F-2.3°C 20.6°F-6.3°C 74% 6.9 mph NW11.1 kmh NW 9.2 mph14.8 kmh 29.71 in1006.1 mb - 0.00 in0.0 mm 0.00 in0.0 mm
08:40 AM 27.9°F-2.3°C 20.3°F-6.5°C 73% 5.8 mph NNW9.3 kmh NNW 5.8 mph9.3 kmh 29.71 in1006.1 mb - 0.00 in0.0 mm 0.00 in0.0 mm
08:45 AM 27.9°F-2.3°C 20.3°F-6.5°C 73% 5.8 mph NNW9.3 kmh NNW 8.1 mph13.0 kmh 29.72 in1006.4 mb - 0.00 in0.0 mm 0.00 in0.0 mm
08:50 AM 27.9°F-2.3°C 20.3°F-6.5°C 73% 6.9 mph NNW11.1 kmh NNW 9.2 mph14.8 kmh 29.72 in1006.4 mb - 0.00 in0.0 mm 0.00 in0.0 mm
08:55 AM 27.9°F-2.3°C 20.3°F-6.5°C 73% 5.8 mph NNW9.3 kmh NNW 6.9 mph11.1 kmh 29.72 in1006.4 mb - 0.00 in0.0 mm 0.00 in0.0 mm
09:00 AM 28.0°F-2.2°C 20.2°F-6.6°C 72% 8.1 mph NW13.0 kmh NW 10.4 mph16.7 kmh 29.71 in1006.1 mb - 0.00 in0.0 mm 0.00 in0.0 mm
09:10 AM 28.2°F-2.1°C 19.7°F-6.8°C 70% 8.1 mph NNW13.0 kmh NNW 9.2 mph14.8 kmh 29.71 in1006.1 mb - 0.00 in0.0 mm 0.00 in0.0 mm
09:15 AM 28.2°F-2.1°C 19.7°F-6.8°C 70% 8.1 mph NNW13.0 kmh NNW 8.1 mph13.0 kmh 29.72 in1006.4 mb - 0.00 in0.0 mm 0.00 in0.0 mm
09:20 AM 27.9°F-2.3°C 19.3°F-7.1°C 70% 8.1 mph NNW13.0 kmh NNW 10.4 mph16.7 kmh 29.72 in1006.4 mb - 0.00 in0.0 mm 0.00 in0.0 mm
09:25 AM 27.7°F-2.4°C 19.2°F-7.1°C 70% 8.1 mph NNW13.0 kmh NNW 9.2 mph14.8 kmh 29.72 in1006.4 mb - 0.00 in0.0 mm 0.00 in0.0 mm
09:30 AM 27.9°F-2.3°C 19.3°F-7.1°C 70% 5.8 mph NW9.3 kmh NW 6.9 mph11.1 kmh 29.72 in1006.4 mb - 0.00 in0.0 mm 0.00 in0.0 mm
09:35 AM 27.9°F-2.3°C 19.3°F-7.1°C 70% 5.8 mph NNW9.3 kmh NNW 5.8 mph9.3 kmh 29.72 in1006.4 mb - 0.00 in0.0 mm 0.00 in0.0 mm
09:40 AM 27.9°F-2.3°C 19.0°F-7.2°C 69% 8.1 mph WNW13.0 kmh WNW 6.9 mph11.1 kmh 29.72 in1006.4 mb - 0.00 in0.0 mm 0.00 in0.0 mm
09:45 AM 27.9°F-2.3°C 19.0°F-7.2°C 69% 5.8 mph NW9.3 kmh NW 9.2 mph14.8 kmh 29.72 in1006.4 mb - 0.00 in0.0 mm 0.00 in0.0 mm
09:50 AM 27.9°F-2.3°C 19.0°F-7.2°C 69% 6.9 mph N11.1 kmh N 9.2 mph14.8 kmh 29.72 in1006.4 mb - 0.00 in0.0 mm 0.00 in0.0 mm
09:55 AM 28.0°F-2.2°C 19.2°F-7.1°C 69% 5.8 mph N9.3 kmh N 5.8 mph9.3 kmh 29.72 in1006.4 mb - 0.00 in0.0 mm 0.00 in0.0 mm
10:00 AM 28.0°F-2.2°C 19.2°F-7.1°C 69% 6.9 mph NNW11.1 kmh NNW 6.9 mph11.1 kmh 29.73 in1006.8 mb - 0.00 in0.0 mm 0.00 in0.0 mm
10:10 AM 28.0°F-2.2°C 19.2°F-7.1°C 69% 5.8 mph NNW9.3 kmh NNW 8.1 mph13.0 kmh 29.73 in1006.8 mb - 0.00 in0.0 mm 0.00 in0.0 mm
10:15 AM 28.0°F-2.2°C 19.2°F-7.1°C 69% 5.8 mph NW9.3 kmh NW 8.1 mph13.0 kmh 29.73 in1006.8 mb - 0.00 in0.0 mm 0.00 in0.0 mm
10:20 AM 28.0°F-2.2°C 19.2°F-7.1°C 69% 6.9 mph NNW11.1 kmh NNW 9.2 mph14.8 kmh 29.73 in1006.8 mb - 0.00 in0.0 mm 0.00 in0.0 mm
10:25 AM 28.0°F-2.2°C 19.2°F-7.1°C 69% 5.8 mph NNW9.3 kmh NNW 5.8 mph9.3 kmh 29.73 in1006.8 mb - 0.00 in0.0 mm 0.00 in0.0 mm
10:30 AM 28.0°F-2.2°C 19.2°F-7.1°C 69% 6.9 mph NNW11.1 kmh NNW 10.4 mph16.7 kmh 29.73 in1006.8 mb - 0.00 in0.0 mm 0.00 in0.0 mm
10:35 AM 28.0°F-2.2°C 19.2°F-7.1°C 69% 6.9 mph NNW11.1 kmh NNW 9.2 mph14.8 kmh 29.73 in1006.8 mb - 0.00 in0.0 mm 0.00 in0.0 mm
10:40 AM 28.0°F-2.2°C 19.2°F-7.1°C 69% 9.2 mph NW14.8 kmh NW 11.5 mph18.5 kmh 29.73 in1006.8 mb - 0.00 in0.0 mm 0.00 in0.0 mm
10:45 AM 28.5°F-1.9°C 19.3°F-7.1°C 68% 6.9 mph NNW11.1 kmh NNW 8.1 mph13.0 kmh 29.73 in1006.8 mb - 0.00 in0.0 mm 0.00 in0.0 mm
10:50 AM 29.3°F-1.5°C 19.3°F-7.1°C 66% 9.2 mph NNW14.8 kmh NNW 9.2 mph14.8 kmh 29.73 in1006.8 mb - 0.00 in0.0 mm 0.00 in0.0 mm
10:55 AM 29.3°F-1.5°C 19.3°F-7.1°C 66% 8.1 mph NNW13.0 kmh NNW 10.4 mph16.7 kmh 29.73 in1006.8 mb - 0.00 in0.0 mm 0.00 in0.0 mm
11:00 AM 29.7°F-1.3°C 19.7°F-6.8°C 66% 5.8 mph WNW9.3 kmh WNW 9.2 mph14.8 kmh 29.74 in1007.1 mb - 0.00 in0.0 mm 0.00 in0.0 mm
11:10 AM 29.7°F-1.3°C 19.7°F-6.8°C 66% 6.9 mph NNW11.1 kmh NNW 10.4 mph16.7 kmh 29.74 in1007.1 mb - 0.00 in0.0 mm 0.00 in0.0 mm
11:15 AM 29.8°F-1.2°C 19.8°F-6.8°C 66% 6.9 mph NNW11.1 kmh NNW 8.1 mph13.0 kmh 29.74 in1007.1 mb - 0.00 in0.0 mm 0.00 in0.0 mm
11:20 AM 30.0°F-1.1°C 20.0°F-6.7°C 66% 6.9 mph NW11.1 kmh NW 10.4 mph16.7 kmh 29.74 in1007.1 mb - 0.00 in0.0 mm 0.00 in0.0 mm
11:25 AM 30.0°F-1.1°C 20.0°F-6.7°C 66% 6.9 mph NNW11.1 kmh NNW 8.1 mph13.0 kmh 29.74 in1007.1 mb - 0.00 in0.0 mm 0.00 in0.0 mm
11:30 AM 30.0°F-1.1°C 19.7°F-6.8°C 65% 5.8 mph NW9.3 kmh NW 10.4 mph16.7 kmh 29.74 in1007.1 mb - 0.00 in0.0 mm 0.00 in0.0 mm
11:35 AM 30.0°F-1.1°C 19.7°F-6.8°C 65% 8.1 mph NW13.0 kmh NW 9.2 mph14.8 kmh 29.74 in1007.1 mb - 0.00 in0.0 mm 0.00 in0.0 mm
11:40 AM 30.0°F-1.1°C 19.7°F-6.8°C 65% 9.2 mph NNW14.8 kmh NNW 10.4 mph16.7 kmh 29.74 in1007.1 mb - 0.00 in0.0 mm 0.00 in0.0 mm
11:45 AM 30.0°F-1.1°C 19.3°F-7.1°C 64% 9.2 mph NNW14.8 kmh NNW 11.5 mph18.5 kmh 29.73 in1006.8 mb - 0.00 in0.0 mm 0.00 in0.0 mm
11:50 AM 30.2°F-1.0°C 19.8°F-6.8°C 65% 5.8 mph NNW9.3 kmh NNW 8.1 mph13.0 kmh 29.73 in1006.8 mb - 0.00 in0.0 mm 0.00 in0.0 mm
11:55 AM 30.2°F-1.0°C 19.8°F-6.8°C 65% 8.1 mph N13.0 kmh N 10.4 mph16.7 kmh 29.73 in1006.8 mb - 0.00 in0.0 mm 0.00 in0.0 mm
12:00 PM 30.6°F-0.8°C 19.1°F-7.2°C 62% 9.2 mph NNW14.8 kmh NNW 11.5 mph18.5 kmh 29.73 in1006.8 mb - 0.00 in0.0 mm 0.00 in0.0 mm
12:10 PM 31.6°F-0.2°C 19.6°F-6.9°C 61% 9.2 mph NNW14.8 kmh NNW 10.4 mph16.7 kmh 29.73 in1006.8 mb - 0.00 in0.0 mm 0.00 in0.0 mm
12:15 PM 32.0°F0.0°C 19.7°F-6.8°C 60% 8.1 mph WNW13.0 kmh WNW 9.2 mph14.8 kmh 29.74 in1007.1 mb - 0.00 in0.0 mm 0.00 in0.0 mm
12:20 PM 32.0°F0.0°C 19.3°F-7.1°C 59% 10.4 mph N16.7 kmh N 12.7 mph20.4 kmh 29.74 in1007.1 mb - 0.00 in0.0 mm 0.00 in0.0 mm
12:25 PM 32.4°F0.2°C 19.6°F-6.9°C 59% 6.9 mph NW11.1 kmh NW 9.2 mph14.8 kmh 29.74 in1007.1 mb - 0.00 in0.0 mm 0.00 in0.0 mm
12:30 PM 32.4°F0.2°C 19.2°F-7.1°C 58% 10.4 mph N16.7 kmh N 10.4 mph16.7 kmh 29.74 in1007.1 mb - 0.00 in0.0 mm 0.00 in0.0 mm
12:35 PM 32.4°F0.2°C 19.2°F-7.1°C 58% 10.4 mph NNW16.7 kmh NNW 10.4 mph16.7 kmh 29.74 in1007.1 mb - 0.00 in0.0 mm 0.00 in0.0 mm
12:40 PM 32.7°F0.4°C 20.0°F-6.7°C 59% 8.1 mph NNW13.0 kmh NNW 10.4 mph16.7 kmh 29.74 in1007.1 mb - 0.00 in0.0 mm 0.00 in0.0 mm
12:45 PM 33.1°F0.6°C 19.9°F-6.7°C 58% 9.2 mph NW14.8 kmh NW 10.4 mph16.7 kmh 29.74 in1007.1 mb - 0.00 in0.0 mm 0.00 in0.0 mm
12:50 PM 33.1°F0.6°C 19.9°F-6.7°C 58% 6.9 mph N11.1 kmh N 8.1 mph13.0 kmh 29.74 in1007.1 mb - 0.00 in0.0 mm 0.00 in0.0 mm
12:55 PM 33.3°F0.7°C 20.1°F-6.6°C 58% 6.9 mph WNW11.1 kmh WNW 6.9 mph11.1 kmh 29.74 in1007.1 mb - 0.00 in0.0 mm 0.00 in0.0 mm
01:00 PM 33.6°F0.9°C 20.4°F-6.4°C 58% 6.9 mph N11.1 kmh N 12.7 mph20.4 kmh 29.74 in1007.1 mb - 0.00 in0.0 mm 0.00 in0.0 mm
01:10 PM 33.6°F0.9°C 20.0°F-6.7°C 57% 8.1 mph NNW13.0 kmh NNW 5.8 mph9.3 kmh 29.74 in1007.1 mb - 0.00 in0.0 mm 0.00 in0.0 mm
01:15 PM 33.6°F0.9°C 20.0°F-6.7°C 57% 8.1 mph NW13.0 kmh NW 10.4 mph16.7 kmh 29.73 in1006.8 mb - 0.00 in0.0 mm 0.00 in0.0 mm
01:20 PM 32.7°F0.4°C 19.1°F-7.2°C 57% 8.1 mph NNW13.0 kmh NNW 9.2 mph14.8 kmh 29.73 in1006.8 mb - 0.00 in0.0 mm 0.00 in0.0 mm
01:25 PM 32.7°F0.4°C 19.6°F-6.9°C 58% 5.8 mph NNW9.3 kmh NNW 9.2 mph14.8 kmh 29.73 in1006.8 mb - 0.00 in0.0 mm 0.00 in0.0 mm
01:30 PM 32.9°F0.5°C 19.7°F-6.8°C 58% 5.8 mph NW9.3 kmh NW 6.9 mph11.1 kmh 29.73 in1006.8 mb - 0.00 in0.0 mm 0.00 in0.0 mm
01:35 PM 32.8°F0.4°C 19.6°F-6.9°C 58% 9.2 mph NNW14.8 kmh NNW 8.1 mph13.0 kmh 29.73 in1006.8 mb - 0.00 in0.0 mm 0.00 in0.0 mm
01:40 PM 32.7°F0.4°C 19.6°F-6.9°C 58% 4.6 mph NNW7.4 kmh NNW 5.8 mph9.3 kmh 29.73 in1006.8 mb - 0.00 in0.0 mm 0.00 in0.0 mm
01:45 PM 32.7°F0.4°C 19.5°F-6.9°C 58% 9.2 mph NNW14.8 kmh NNW 9.2 mph14.8 kmh 29.74 in1007.1 mb - 0.00 in0.0 mm 0.00 in0.0 mm
01:50 PM 32.4°F0.2°C 19.2°F-7.1°C 58% 5.8 mph WNW9.3 kmh WNW 5.8 mph9.3 kmh 29.74 in1007.1 mb - 0.00 in0.0 mm 0.00 in0.0 mm
01:55 PM 32.4°F0.2°C 19.6°F-6.9°C 59% 6.9 mph NNW11.1 kmh NNW 10.4 mph16.7 kmh 29.74 in1007.1 mb - 0.00 in0.0 mm 0.00 in0.0 mm
02:00 PM 32.4°F0.2°C 19.6°F-6.9°C 59% 9.2 mph N14.8 kmh N 13.8 mph22.2 kmh 29.73 in1006.8 mb - 0.00 in0.0 mm 0.00 in0.0 mm
02:10 PM 32.4°F0.2°C 20.0°F-6.7°C 60% 4.6 mph NW7.4 kmh NW 6.9 mph11.1 kmh 29.73 in1006.8 mb - 0.00 in0.0 mm 0.00 in0.0 mm
02:15 PM 32.2°F0.1°C 19.8°F-6.8°C 60% 8.1 mph NNW13.0 kmh NNW 8.1 mph13.0 kmh 29.73 in1006.8 mb - 0.00 in0.0 mm 0.00 in0.0 mm
02:20 PM 32.2°F0.1°C 19.8°F-6.8°C 60% 8.1 mph NNW13.0 kmh NNW 6.9 mph11.1 kmh 29.73 in1006.8 mb - 0.00 in0.0 mm 0.00 in0.0 mm
02:25 PM 32.2°F0.1°C 19.8°F-6.8°C 60% 9.2 mph NW14.8 kmh NW 12.7 mph20.4 kmh 29.73 in1006.8 mb - 0.00 in0.0 mm 0.00 in0.0 mm
02:30 PM 32.2°F0.1°C 19.4°F-7.0°C 59% 8.1 mph NNW13.0 kmh NNW 9.2 mph14.8 kmh 29.73 in1006.8 mb - 0.00 in0.0 mm 0.00 in0.0 mm
02:35 PM 32.2°F0.1°C 19.4°F-7.0°C 59% 9.2 mph NNW14.8 kmh NNW 9.2 mph14.8 kmh 29.73 in1006.8 mb - 0.00 in0.0 mm 0.00 in0.0 mm
02:40 PM 32.0°F0.0°C 19.3°F-7.1°C 59% 5.8 mph NW9.3 kmh NW 10.4 mph16.7 kmh 29.73 in1006.8 mb - 0.00 in0.0 mm 0.00 in0.0 mm
02:45 PM 32.0°F0.0°C 19.7°F-6.8°C 60% 5.8 mph NNW9.3 kmh NNW 8.1 mph13.0 kmh 29.74 in1007.1 mb - 0.00 in0.0 mm 0.00 in0.0 mm
02:50 PM 32.0°F0.0°C 19.7°F-6.8°C 60% 5.8 mph NW9.3 kmh NW 5.8 mph9.3 kmh 29.74 in1007.1 mb - 0.00 in0.0 mm 0.00 in0.0 mm
02:55 PM 32.0°F0.0°C 19.7°F-6.8°C 60% 4.6 mph WNW7.4 kmh WNW 4.6 mph7.4 kmh 29.74 in1007.1 mb - 0.00 in0.0 mm 0.00 in0.0 mm
03:00 PM 32.0°F0.0°C 19.7°F-6.8°C 60% 6.9 mph NNW11.1 kmh NNW 6.9 mph11.1 kmh 29.73 in1006.8 mb - 0.00 in0.0 mm 0.00 in0.0 mm
03:10 PM 32.0°F0.0°C 19.7°F-6.8°C 60% 5.8 mph NNW9.3 kmh NNW 6.9 mph11.1 kmh 29.73 in1006.8 mb - 0.00 in0.0 mm 0.00 in0.0 mm
03:15 PM 32.0°F0.0°C 19.7°F-6.8°C 60% 5.8 mph NNW9.3 kmh NNW 5.8 mph9.3 kmh 29.74 in1007.1 mb - 0.00 in0.0 mm 0.00 in0.0 mm
03:20 PM 32.0°F0.0°C 20.1°F-6.6°C 61% 3.5 mph WNW5.6 kmh WNW 3.5 mph5.6 kmh 29.74 in1007.1 mb - 0.00 in0.0 mm 0.00 in0.0 mm
03:25 PM 32.0°F0.0°C 20.1°F-6.6°C 61% 5.8 mph WNW9.3 kmh WNW 8.1 mph13.0 kmh 29.74 in1007.1 mb - 0.00 in0.0 mm 0.00 in0.0 mm
03:30 PM 31.8°F-0.1°C 20.3°F-6.5°C 62% 4.6 mph WNW7.4 kmh WNW 4.6 mph7.4 kmh 29.74 in1007.1 mb - 0.00 in0.0 mm 0.00 in0.0 mm
03:35 PM 31.8°F-0.1°C 20.6°F-6.3°C 63% 3.5 mph W5.6 kmh W 3.5 mph5.6 kmh 29.74 in1007.1 mb - 0.00 in0.0 mm 0.00 in0.0 mm
03:40 PM 31.8°F-0.1°C 20.6°F-6.3°C 63% 4.6 mph NW7.4 kmh NW 5.8 mph9.3 kmh 29.74 in1007.1 mb - 0.00 in0.0 mm 0.00 in0.0 mm
03:45 PM 31.6°F-0.2°C 20.5°F-6.4°C 63% 4.6 mph WNW7.4 kmh WNW 3.5 mph5.6 kmh 29.74 in1007.1 mb - 0.00 in0.0 mm 0.00 in0.0 mm
03:50 PM 31.6°F-0.2°C 20.5°F-6.4°C 63% 3.5 mph NW5.6 kmh NW 5.8 mph9.3 kmh 29.74 in1007.1 mb - 0.00 in0.0 mm 0.00 in0.0 mm
03:55 PM 31.6°F-0.2°C 20.5°F-6.4°C 63% 6.9 mph WNW11.1 kmh WNW 5.8 mph9.3 kmh 29.74 in1007.1 mb - 0.00 in0.0 mm 0.00 in0.0 mm
04:00 PM 31.6°F-0.2°C 20.5°F-6.4°C 63% 5.8 mph NW9.3 kmh NW 5.8 mph9.3 kmh 29.75 in1007.5 mb - 0.00 in0.0 mm 0.00 in0.0 mm
04:10 PM 31.5°F-0.3°C 20.7°F-6.3°C 64% 6.9 mph NW11.1 kmh NW 6.9 mph11.1 kmh 29.75 in1007.5 mb - 0.00 in0.0 mm 0.00 in0.0 mm
04:15 PM 31.6°F-0.2°C 20.5°F-6.4°C 63% 5.8 mph WNW9.3 kmh WNW 6.9 mph11.1 kmh 29.74 in1007.1 mb - 0.00 in0.0 mm 0.00 in0.0 mm
04:20 PM 31.5°F-0.3°C 20.7°F-6.3°C 64% 4.6 mph NW7.4 kmh NW 5.8 mph9.3 kmh 29.74 in1007.1 mb - 0.00 in0.0 mm 0.00 in0.0 mm
04:25 PM 31.5°F-0.3°C 20.7°F-6.3°C 64% 4.6 mph WNW7.4 kmh WNW 3.5 mph5.6 kmh 29.74 in1007.1 mb - 0.00 in0.0 mm 0.00 in0.0 mm
04:30 PM 31.5°F-0.3°C 20.7°F-6.3°C 64% 4.6 mph W7.4 kmh W 6.9 mph11.1 kmh 29.75 in1007.5 mb - 0.00 in0.0 mm 0.00 in0.0 mm
04:35 PM 31.5°F-0.3°C 20.7°F-6.3°C 64% 5.8 mph WNW9.3 kmh WNW 5.8 mph9.3 kmh 29.75 in1007.5 mb - 0.00 in0.0 mm 0.00 in0.0 mm
04:40 PM 31.3°F-0.4°C 20.5°F-6.4°C 64% 4.6 mph WNW7.4 kmh WNW 5.8 mph9.3 kmh 29.75 in1007.5 mb - 0.00 in0.0 mm 0.00 in0.0 mm
04:45 PM 31.3°F-0.4°C 20.5°F-6.4°C 64% 5.8 mph WNW9.3 kmh WNW 9.2 mph14.8 kmh 29.76 in1007.8 mb - 0.00 in0.0 mm 0.00 in0.0 mm
04:50 PM 31.3°F-0.4°C 20.5°F-6.4°C 64% 5.8 mph NW9.3 kmh NW 5.8 mph9.3 kmh 29.76 in1007.8 mb - 0.00 in0.0 mm 0.00 in0.0 mm
04:55 PM 31.3°F-0.4°C 20.9°F-6.2°C 65% 3.5 mph NW5.6 kmh NW 4.6 mph7.4 kmh 29.76 in1007.8 mb - 0.00 in0.0 mm 0.00 in0.0 mm
05:00 PM 31.3°F-0.4°C 20.9°F-6.2°C 65% 4.6 mph NW7.4 kmh NW 5.8 mph9.3 kmh 29.76 in1007.8 mb - 0.00 in0.0 mm 0.00 in0.0 mm
05:10 PM 31.1°F-0.5°C 20.7°F-6.3°C 65% 5.8 mph WNW9.3 kmh WNW 5.8 mph9.3 kmh 29.76 in1007.8 mb - 0.00 in0.0 mm 0.00 in0.0 mm
05:15 PM 31.1°F-0.5°C 20.7°F-6.3°C 65% 5.8 mph W9.3 kmh W 8.1 mph13.0 kmh 29.75 in1007.5 mb - 0.00 in0.0 mm 0.00 in0.0 mm
05:20 PM 31.1°F-0.5°C 20.7°F-6.3°C 65% 4.6 mph WNW7.4 kmh WNW 10.4 mph16.7 kmh 29.75 in1007.5 mb - 0.00 in0.0 mm 0.00 in0.0 mm
05:25 PM 31.3°F-0.4°C 20.5°F-6.4°C 64% 5.8 mph NW9.3 kmh NW 6.9 mph11.1 kmh 29.75 in1007.5 mb - 0.00 in0.0 mm 0.00 in0.0 mm
05:30 PM 31.1°F-0.5°C 20.3°F-6.5°C 64% 5.8 mph WNW9.3 kmh WNW 5.8 mph9.3 kmh 29.76 in1007.8 mb - 0.00 in0.0 mm 0.00 in0.0 mm
05:35 PM 31.1°F-0.5°C 20.3°F-6.5°C 64% 5.8 mph NNW9.3 kmh NNW 6.9 mph11.1 kmh 29.76 in1007.8 mb - 0.00 in0.0 mm 0.00 in0.0 mm
05:40 PM 31.1°F-0.5°C 20.3°F-6.5°C 64% 6.9 mph NNW11.1 kmh NNW 9.2 mph14.8 kmh 29.76 in1007.8 mb - 0.00 in0.0 mm 0.00 in0.0 mm
05:45 PM 31.1°F-0.5°C 20.3°F-6.5°C 64% 4.6 mph NW7.4 kmh NW 5.8 mph9.3 kmh 29.76 in1007.8 mb - 0.00 in0.0 mm 0.00 in0.0 mm
05:50 PM 31.1°F-0.5°C 20.3°F-6.5°C 64% 4.6 mph NW7.4 kmh NW 4.6 mph7.4 kmh 29.76 in1007.8 mb - 0.00 in0.0 mm 0.00 in0.0 mm
05:55 PM 30.9°F-0.6°C 20.2°F-6.6°C 64% 4.6 mph NNW7.4 kmh NNW 9.2 mph14.8 kmh 29.76 in1007.8 mb - 0.00 in0.0 mm 0.00 in0.0 mm
06:00 PM 30.9°F-0.6°C 20.2°F-6.6°C 64% 5.8 mph NW9.3 kmh NW 5.8 mph9.3 kmh 29.76 in1007.8 mb - 0.00 in0.0 mm 0.00 in0.0 mm
06:10 PM 30.9°F-0.6°C 20.5°F-6.4°C 65% 4.6 mph W7.4 kmh W 5.8 mph9.3 kmh 29.76 in1007.8 mb - 0.00 in0.0 mm 0.00 in0.0 mm
06:15 PM 30.9°F-0.6°C 20.9°F-6.2°C 66% 9.2 mph NW14.8 kmh NW 13.8 mph22.2 kmh 29.76 in1007.8 mb - 0.00 in0.0 mm 0.00 in0.0 mm
06:20 PM 30.9°F-0.6°C 20.9°F-6.2°C 66% 5.8 mph WNW9.3 kmh WNW 6.9 mph11.1 kmh 29.76 in1007.8 mb - 0.00 in0.0 mm 0.00 in0.0 mm
06:25 PM 30.9°F-0.6°C 20.5°F-6.4°C 65% 8.1 mph NW13.0 kmh NW 8.1 mph13.0 kmh 29.76 in1007.8 mb - 0.00 in0.0 mm 0.00 in0.0 mm
06:30 PM 30.7°F-0.7°C 20.4°F-6.4°C 65% 5.8 mph NNW9.3 kmh NNW 8.1 mph13.0 kmh 29.76 in1007.8 mb - 0.00 in0.0 mm 0.00 in0.0 mm
06:35 PM 30.7°F-0.7°C 20.4°F-6.4°C 65% 6.9 mph NW11.1 kmh NW 10.4 mph16.7 kmh 29.76 in1007.8 mb - 0.00 in0.0 mm 0.00 in0.0 mm
06:40 PM 30.9°F-0.6°C 20.2°F-6.6°C 64% 9.2 mph WNW14.8 kmh WNW 13.8 mph22.2 kmh 29.76 in1007.8 mb - 0.00 in0.0 mm 0.00 in0.0 mm
06:45 PM 30.9°F-0.6°C 20.2°F-6.6°C 64% 8.1 mph NW13.0 kmh NW 10.4 mph16.7 kmh 29.77 in1008.1 mb - 0.00 in0.0 mm 0.00 in0.0 mm
06:50 PM 30.9°F-0.6°C 19.8°F-6.8°C 63% 8.1 mph WNW13.0 kmh WNW 10.4 mph16.7 kmh 29.77 in1008.1 mb - 0.00 in0.0 mm 0.00 in0.0 mm
06:55 PM 30.9°F-0.6°C 19.8°F-6.8°C 63% 8.1 mph W13.0 kmh W 10.4 mph16.7 kmh 29.77 in1008.1 mb - 0.00 in0.0 mm 0.00 in0.0 mm
07:00 PM 30.8°F-0.7°C 19.7°F-6.8°C 63% 6.9 mph WNW11.1 kmh WNW 8.1 mph13.0 kmh 29.76 in1007.8 mb - 0.00 in0.0 mm 0.00 in0.0 mm
07:10 PM 30.7°F-0.7°C 19.2°F-7.1°C 62% 4.6 mph WNW7.4 kmh WNW 5.8 mph9.3 kmh 29.76 in1007.8 mb - 0.00 in0.0 mm 0.00 in0.0 mm
07:15 PM 30.6°F-0.8°C 19.1°F-7.2°C 62% 3.5 mph NNW5.6 kmh NNW 3.5 mph5.6 kmh 29.77 in1008.1 mb - 0.00 in0.0 mm 0.00 in0.0 mm
07:20 PM 30.4°F-0.9°C 18.9°F-7.3°C 62% 4.6 mph NW7.4 kmh NW 4.6 mph7.4 kmh 29.77 in1008.1 mb - 0.00 in0.0 mm 0.00 in0.0 mm
07:25 PM 30.2°F-1.0°C 18.4°F-7.6°C 61% 6.9 mph WNW11.1 kmh WNW 5.8 mph9.3 kmh 29.77 in1008.1 mb - 0.00 in0.0 mm 0.00 in0.0 mm
07:30 PM 30.1°F-1.1°C 17.9°F-7.8°C 60% 5.8 mph NW9.3 kmh NW 6.9 mph11.1 kmh 29.77 in1008.1 mb - 0.00 in0.0 mm 0.00 in0.0 mm
07:35 PM 30.0°F-1.1°C 17.8°F-7.9°C 60% 4.6 mph NW7.4 kmh NW 5.8 mph9.3 kmh 29.77 in1008.1 mb - 0.00 in0.0 mm 0.00 in0.0 mm
07:40 PM 29.8°F-1.2°C 17.6°F-8.0°C 60% 3.5 mph NNW5.6 kmh NNW 4.6 mph7.4 kmh 29.77 in1008.1 mb - 0.00 in0.0 mm 0.00 in0.0 mm
07:45 PM 29.7°F-1.3°C 17.5°F-8.1°C 60% 5.8 mph NW9.3 kmh NW 8.1 mph13.0 kmh 29.78 in1008.5 mb - 0.00 in0.0 mm 0.00 in0.0 mm
07:50 PM 29.5°F-1.4°C 17.7°F-7.9°C 61% 3.5 mph WNW5.6 kmh WNW 3.5 mph5.6 kmh 29.78 in1008.5 mb - 0.00 in0.0 mm 0.00 in0.0 mm
07:55 PM 29.3°F-1.5°C 17.1°F-8.3°C 60% 4.6 mph WNW7.4 kmh WNW 5.8 mph9.3 kmh 29.78 in1008.5 mb - 0.00 in0.0 mm 0.00 in0.0 mm
08:00 PM 29.0°F-1.7°C 17.2°F-8.2°C 61% 4.6 mph WNW7.4 kmh WNW 5.8 mph9.3 kmh 29.78 in1008.5 mb - 0.00 in0.0 mm 0.00 in0.0 mm
08:10 PM 28.6°F-1.9°C 16.8°F-8.4°C 61% 2.3 mph WNW3.7 kmh WNW 3.5 mph5.6 kmh 29.78 in1008.5 mb - 0.00 in0.0 mm 0.00 in0.0 mm
08:15 PM 28.2°F-2.1°C 17.2°F-8.2°C 63% 2.3 mph NW3.7 kmh NW 3.5 mph5.6 kmh 29.78 in1008.5 mb - 0.00 in0.0 mm 0.00 in0.0 mm
08:20 PM 27.9°F-2.3°C 16.9°F-8.4°C 63% 4.6 mph WNW7.4 kmh WNW 5.8 mph9.3 kmh 29.78 in1008.5 mb - 0.00 in0.0 mm 0.00 in0.0 mm
08:25 PM 27.3°F-2.6°C 16.4°F-8.7°C 63% 4.6 mph WNW7.4 kmh WNW 5.8 mph9.3 kmh 29.78 in1008.5 mb - 0.00 in0.0 mm 0.00 in0.0 mm
08:30 PM 27.1°F-2.7°C 16.6°F-8.6°C 64% 3.5 mph W5.6 kmh W 3.5 mph5.6 kmh 29.77 in1008.1 mb - 0.00 in0.0 mm 0.00 in0.0 mm
08:35 PM 27.1°F-2.7°C 16.5°F-8.6°C 64% 3.5 mph W5.6 kmh W 3.5 mph5.6 kmh 29.77 in1008.1 mb - 0.00 in0.0 mm 0.00 in0.0 mm
08:40 PM 26.8°F-2.9°C 16.2°F-8.8°C 64% 3.5 mph W5.6 kmh W 3.5 mph5.6 kmh 29.77 in1008.1 mb - 0.00 in0.0 mm 0.00 in0.0 mm
08:45 PM 26.8°F-2.9°C 16.2°F-8.8°C 64% 3.5 mph W5.6 kmh W 3.5 mph5.6 kmh 29.77 in1008.1 mb - 0.00 in0.0 mm 0.00 in0.0 mm
08:50 PM 26.6°F-3.0°C 16.1°F-8.8°C 64% 3.5 mph WNW5.6 kmh WNW 4.6 mph7.4 kmh 29.77 in1008.1 mb - 0.00 in0.0 mm 0.00 in0.0 mm
08:55 PM 26.4°F-3.1°C 15.9°F-8.9°C 64% 4.6 mph WNW7.4 kmh WNW 3.5 mph5.6 kmh 29.77 in1008.1 mb - 0.00 in0.0 mm 0.00 in0.0 mm
09:00 PM 26.3°F-3.2°C 15.8°F-9.0°C 64% 3.5 mph WNW5.6 kmh WNW 4.6 mph7.4 kmh 29.78 in1008.5 mb - 0.00 in0.0 mm 0.00 in0.0 mm
09:10 PM 26.1°F-3.3°C 15.5°F-9.2°C 64% 4.6 mph W7.4 kmh W 4.6 mph7.4 kmh 29.78 in1008.5 mb - 0.00 in0.0 mm 0.00 in0.0 mm
09:15 PM 25.9°F-3.4°C 15.4°F-9.2°C 64% 3.5 mph WNW5.6 kmh WNW 4.6 mph7.4 kmh 29.77 in1008.1 mb - 0.00 in0.0 mm 0.00 in0.0 mm
09:20 PM 25.7°F-3.5°C 15.2°F-9.3°C 64% 3.5 mph WNW5.6 kmh WNW 4.6 mph7.4 kmh 29.77 in1008.1 mb - 0.00 in0.0 mm 0.00 in0.0 mm
09:25 PM 25.8°F-3.4°C 15.3°F-9.3°C 64% 3.5 mph NW5.6 kmh NW 4.6 mph7.4 kmh 29.77 in1008.1 mb - 0.00 in0.0 mm 0.00 in0.0 mm
09:30 PM 25.7°F-3.5°C 15.2°F-9.3°C 64% 4.6 mph WNW7.4 kmh WNW 6.9 mph11.1 kmh 29.78 in1008.5 mb - 0.00 in0.0 mm 0.00 in0.0 mm
09:35 PM 25.7°F-3.5°C 15.2°F-9.3°C 64% 4.6 mph SW7.4 kmh SW 4.6 mph7.4 kmh 29.78 in1008.5 mb - 0.00 in0.0 mm 0.00 in0.0 mm
09:40 PM 25.5°F-3.6°C 15.0°F-9.4°C 64% 4.6 mph WNW7.4 kmh WNW 6.9 mph11.1 kmh 29.78 in1008.5 mb - 0.00 in0.0 mm 0.00 in0.0 mm
09:45 PM 25.3°F-3.7°C 14.9°F-9.5°C 64% 4.6 mph WNW7.4 kmh WNW 4.6 mph7.4 kmh 29.77 in1008.1 mb - 0.00 in0.0 mm 0.00 in0.0 mm
09:50 PM 25.3°F-3.7°C 15.2°F-9.3°C 65% 3.5 mph WSW5.6 kmh WSW 4.6 mph7.4 kmh 29.77 in1008.1 mb - 0.00 in0.0 mm 0.00 in0.0 mm
09:55 PM 25.2°F-3.8°C 15.0°F-9.4°C 65% 3.5 mph WNW5.6 kmh WNW 4.6 mph7.4 kmh 29.77 in1008.1 mb - 0.00 in0.0 mm 0.00 in0.0 mm
10:00 PM 25.2°F-3.8°C 15.0°F-9.4°C 65% 4.6 mph WNW7.4 kmh WNW 5.8 mph9.3 kmh 29.77 in1008.1 mb - 0.00 in0.0 mm 0.00 in0.0 mm
10:10 PM 25.0°F-3.9°C 14.9°F-9.5°C 65% 3.5 mph WNW5.6 kmh WNW 5.8 mph9.3 kmh 29.77 in1008.1 mb - 0.00 in0.0 mm 0.00 in0.0 mm
10:15 PM 24.6°F-4.1°C 14.5°F-9.7°C 65% 4.6 mph WNW7.4 kmh WNW 5.8 mph9.3 kmh 29.77 in1008.1 mb - 0.00 in0.0 mm 0.00 in0.0 mm
10:20 PM 24.6°F-4.1°C 14.9°F-9.5°C 66% 3.5 mph W5.6 kmh W 4.6 mph7.4 kmh 29.77 in1008.1 mb - 0.00 in0.0 mm 0.00 in0.0 mm
10:25 PM 24.4°F-4.2°C 14.7°F-9.6°C 66% 3.5 mph WNW5.6 kmh WNW 3.5 mph5.6 kmh 29.77 in1008.1 mb - 0.00 in0.0 mm 0.00 in0.0 mm
10:30 PM 24.3°F-4.3°C 14.5°F-9.7°C 66% 3.5 mph WNW5.6 kmh WNW 3.5 mph5.6 kmh 29.76 in1007.8 mb - 0.00 in0.0 mm 0.00 in0.0 mm
10:35 PM 24.1°F-4.4°C 14.4°F-9.8°C 66% 3.5 mph W5.6 kmh W 4.6 mph7.4 kmh 29.76 in1007.8 mb - 0.00 in0.0 mm 0.00 in0.0 mm
10:40 PM 23.7°F-4.6°C 14.0°F-10.0°C 66% 3.5 mph W5.6 kmh W 3.5 mph5.6 kmh 29.76 in1007.8 mb - 0.00 in0.0 mm 0.00 in0.0 mm
10:45 PM 23.5°F-4.7°C 13.8°F-10.1°C 66% 2.3 mph WNW3.7 kmh WNW 2.3 mph3.7 kmh 29.77 in1008.1 mb - 0.00 in0.0 mm 0.00 in0.0 mm
10:50 PM 23.4°F-4.8°C 13.7°F-10.2°C 66% 3.5 mph W5.6 kmh W 3.5 mph5.6 kmh 29.77 in1008.1 mb - 0.00 in0.0 mm 0.00 in0.0 mm
10:55 PM 23.0°F-5.0°C 13.3°F-10.4°C 66% 3.5 mph WNW5.6 kmh WNW 3.5 mph5.6 kmh 29.77 in1008.1 mb - 0.00 in0.0 mm 0.00 in0.0 mm
11:00 PM 22.8°F-5.1°C 13.1°F-10.5°C 66% 2.3 mph W3.7 kmh W 3.5 mph5.6 kmh 29.77 in1008.1 mb - 0.00 in0.0 mm 0.00 in0.0 mm
11:10 PM 22.3°F-5.4°C 13.0°F-10.6°C 67% 3.5 mph WNW5.6 kmh WNW 4.6 mph7.4 kmh 29.77 in1008.1 mb - 0.00 in0.0 mm 0.00 in0.0 mm
11:15 PM 22.1°F-5.5°C 12.8°F-10.7°C 67% 1.2 mph NW1.9 kmh NW 2.3 mph3.7 kmh 29.77 in1008.1 mb - 0.00 in0.0 mm 0.00 in0.0 mm
11:20 PM 21.9°F-5.6°C 12.6°F-10.8°C 67% 2.3 mph WNW3.7 kmh WNW 2.3 mph3.7 kmh 29.77 in1008.1 mb - 0.00 in0.0 mm 0.00 in0.0 mm
11:25 PM 21.8°F-5.7°C 12.5°F-10.8°C 67% 2.3 mph WNW3.7 kmh WNW 2.3 mph3.7 kmh 29.77 in1008.1 mb - 0.00 in0.0 mm 0.00 in0.0 mm
11:30 PM 21.6°F-5.8°C 12.3°F-10.9°C 67% 1.2 mph W1.9 kmh W 1.2 mph1.9 kmh 29.77 in1008.1 mb - 0.00 in0.0 mm 0.00 in0.0 mm
11:35 PM 21.4°F-5.9°C 12.1°F-11.1°C 67% 1.2 mph W1.9 kmh W 2.3 mph3.7 kmh 29.77 in1008.1 mb - 0.00 in0.0 mm 0.00 in0.0 mm
11:40 PM 21.0°F-6.1°C 12.1°F-11.1°C 68% 1.2 mph W1.9 kmh W 2.3 mph3.7 kmh 29.77 in1008.1 mb - 0.00 in0.0 mm 0.00 in0.0 mm
11:45 PM 20.8°F-6.2°C 12.3°F-10.9°C 69% 1.2 mph W1.9 kmh W 2.3 mph3.7 kmh 29.76 in1007.8 mb - 0.00 in0.0 mm 0.00 in0.0 mm
11:50 PM 20.5°F-6.4°C 11.9°F-11.2°C 69% 1.2 mph W1.9 kmh W 2.3 mph3.7 kmh 29.76 in1007.8 mb - 0.00 in0.0 mm 0.00 in0.0 mm
11:55 PM 20.3°F-6.5°C 11.7°F-11.3°C 69% 1.2 mph W1.9 kmh W 2.3 mph3.7 kmh 29.76 in1007.8 mb - 0.00 in0.0 mm 0.00 in0.0 mm